createdAt,value
2023-10-23T00:03:55.995Z,2.50
2023-10-23T00:08:58.288Z,2.25
2023-10-23T00:14:00.576Z,3.33
2023-10-23T00:19:02.081Z,3.20
2023-10-23T00:24:03.885Z,2.65
2023-10-23T00:29:05.314Z,3.50
2023-10-23T00:34:06.831Z,3.78
2023-10-23T00:39:08.948Z,3.10
2023-10-23T00:44:10.569Z,3.20
2023-10-23T00:49:12.520Z,3.45
2023-10-23T00:54:15.368Z,3.22
2023-10-23T00:59:17.362Z,3.60
2023-10-23T01:04:19.589Z,3.63
2023-10-23T01:09:21.442Z,3.30
2023-10-23T01:14:23.239Z,3.28
2023-10-23T01:19:24.726Z,2.50
2023-10-23T01:24:27.285Z,3.17
2023-10-23T01:29:28.773Z,3.42
2023-10-23T01:34:30.745Z,3.22
2023-10-23T01:39:32.341Z,3.78
2023-10-23T01:44:33.768Z,3.58
2023-10-23T01:49:35.507Z,3.03
2023-10-23T01:54:38.281Z,3.10
2023-10-23T01:59:40.757Z,2.92
2023-10-23T02:04:42.381Z,3.55
2023-10-23T02:09:43.926Z,3.22
2023-10-23T02:14:45.494Z,2.97
2023-10-23T02:19:49.430Z,3.03
2023-10-23T02:24:50.968Z,3.20
2023-10-23T02:29:52.456Z,3.67
2023-10-23T02:34:54.846Z,3.70
2023-10-23T02:39:58.137Z,4.18
2023-10-23T02:45:00.258Z,3.47
2023-10-23T02:50:01.932Z,3.15
2023-10-23T02:55:04.350Z,3.17
2023-10-23T03:00:06.985Z,2.80
2023-10-23T03:05:08.758Z,3.40
2023-10-23T03:10:10.799Z,2.72
2023-10-23T03:15:15.158Z,3.75
2023-10-23T03:25:18.842Z,3.67
2023-10-23T03:30:20.580Z,4.05
2023-10-23T03:35:21.942Z,3.83
2023-10-23T03:40:23.365Z,3.60
2023-10-23T03:45:25.008Z,4.00
2023-10-23T03:50:26.395Z,3.80
2023-10-23T03:55:28.328Z,3.25
2023-10-23T04:00:31.833Z,3.10
2023-10-23T04:05:33.601Z,2.77
2023-10-23T04:10:34.977Z,2.80
2023-10-23T04:15:36.471Z,3.05
2023-10-23T04:20:37.805Z,2.90
2023-10-23T04:25:39.314Z,3.28
2023-10-23T04:30:40.942Z,4.05
2023-10-23T04:35:42.557Z,4.50
2023-10-23T04:40:45.750Z,4.13
2023-10-23T04:45:47.667Z,3.13
2023-10-23T04:50:49.128Z,3.10
2023-10-23T04:55:50.500Z,3.60
2023-10-23T05:00:53.411Z,3.45
2023-10-23T05:05:55.646Z,3.10
2023-10-23T05:11:06.438Z,2.90
2023-10-23T05:16:08.378Z,3.10
2023-10-23T05:21:13.805Z,2.92
2023-10-23T05:26:16.246Z,3.25
2023-10-23T05:31:17.939Z,4.40
2023-10-23T05:36:19.399Z,3.42
2023-10-23T05:41:21.194Z,2.90
2023-10-23T05:46:23.943Z,3.50
2023-10-23T05:51:25.716Z,3.33
2023-10-23T05:56:27.514Z,3.80
2023-10-23T06:01:29.221Z,4.40
2023-10-23T06:06:31.482Z,4.00
2023-10-23T06:11:33.473Z,5.40
2023-10-23T06:16:34.866Z,6.10
2023-10-23T06:21:36.336Z,6.00
2023-10-23T06:26:37.833Z,7.05
2023-10-23T06:31:41.339Z,6.47
2023-10-23T06:36:44.124Z,6.10
2023-10-23T06:41:46.075Z,6.22
2023-10-23T06:46:47.952Z,6.22
2023-10-23T06:51:49.415Z,5.05
2023-10-23T06:56:52.208Z,5.53
2023-10-23T07:01:54.072Z,6.40
2023-10-23T07:06:56.584Z,5.47
2023-10-23T07:11:58.337Z,5.25
2023-10-23T07:17:00.115Z,5.38
2023-10-23T07:22:01.616Z,6.32
2023-10-23T07:27:03.087Z,5.90
2023-10-23T07:32:05.339Z,5.90
2023-10-23T07:37:07.009Z,7.38
2023-10-23T07:42:08.661Z,8.15
2023-10-23T07:47:10.249Z,7.55
2023-10-23T07:52:13.179Z,7.03
2023-10-23T07:57:14.572Z,6.22
2023-10-23T08:02:16.000Z,5.32
2023-10-23T08:07:17.925Z,3.47
2023-10-23T08:12:19.458Z,2.92
2023-10-23T08:17:39.350Z,1.65
2023-10-23T08:22:43.588Z,2.17
2023-10-23T08:27:45.018Z,2.03
2023-10-23T08:32:52.978Z,1.95
2023-10-23T08:37:56.760Z,2.28
2023-10-23T08:42:58.577Z,1.53
2023-10-23T08:48:00.262Z,1.90
2023-10-23T08:53:08.569Z,1.20
2023-10-23T08:58:14.790Z,2.10
2023-10-23T09:03:17.282Z,2.88
2023-10-23T09:08:45.920Z,2.70
2023-10-23T09:13:47.520Z,2.28
2023-10-23T09:18:53.476Z,2.20
2023-10-23T09:23:57.336Z,2.13
2023-10-23T09:28:59.791Z,2.40
2023-10-23T09:34:01.470Z,2.00
2023-10-23T09:39:03.954Z,2.15
2023-10-23T09:44:08.813Z,2.10
2023-10-23T09:49:11.381Z,2.35
2023-10-23T09:54:18.451Z,1.77
2023-10-23T09:59:31.266Z,1.67
2023-10-23T10:05:00.725Z,1.80
2023-10-23T10:10:03.486Z,1.80
2023-10-23T10:15:12.435Z,2.13
2023-10-23T10:20:14.150Z,2.08
2023-10-23T10:25:18.208Z,2.05
2023-10-23T10:30:49.050Z,4.18
2023-10-23T10:36:00.487Z,2.38
2023-10-23T10:41:19.276Z,2.78
2023-10-23T10:46:30.501Z,2.83
2023-10-23T10:51:33.132Z,2.97
2023-10-23T10:56:35.127Z,3.10
2023-10-23T11:01:36.717Z,10.10
2023-10-23T11:06:38.526Z,4.50
2023-10-23T11:11:41.677Z,2.85
2023-10-23T11:16:43.301Z,3.50
2023-10-23T11:21:45.319Z,2.65
2023-10-23T11:26:47.978Z,2.70
2023-10-23T11:31:51.069Z,3.50
2023-10-23T11:36:52.964Z,2.88
2023-10-23T11:41:55.869Z,2.88
2023-10-23T11:47:01.289Z,2.45
2023-10-23T11:52:04.683Z,2.10
2023-10-23T11:57:07.065Z,2.08
2023-10-23T12:02:08.539Z,2.10
2023-10-23T12:07:10.207Z,1.77
2023-10-23T12:12:12.924Z,1.42
2023-10-23T12:17:14.904Z,1.70
2023-10-23T12:22:16.735Z,2.05
2023-10-23T12:27:18.126Z,1.40
2023-10-23T12:33:18.930Z,1.52
2023-10-23T12:37:41.509Z,1.60
2023-10-23T12:42:44.547Z,1.40
2023-10-23T12:47:46.490Z,1.50
2023-10-23T12:52:49.552Z,1.23
2023-10-23T12:57:53.828Z,1.10
2023-10-23T13:02:55.390Z,1.23
2023-10-23T13:07:57.987Z,1.40
2023-10-23T13:12:59.553Z,1.20
2023-10-23T13:18:02.912Z,1.35
2023-10-23T13:23:04.973Z,1.00
2023-10-23T13:28:06.487Z,1.40
2023-10-23T13:33:07.999Z,1.58
2023-10-23T13:38:09.768Z,1.90
2023-10-23T13:43:12.330Z,2.30
2023-10-23T13:48:15.112Z,1.60
2023-10-23T13:53:21.581Z,1.33
2023-10-23T13:58:24.255Z,1.00
2023-10-23T14:03:29.047Z,3.38
2023-10-23T14:08:35.188Z,1.27
2023-10-23T14:13:52.910Z,1.38
2023-10-23T14:18:54.727Z,1.63
2023-10-23T14:23:56.380Z,1.38
2023-10-23T14:28:58.074Z,1.60
2023-10-23T14:33:59.553Z,1.10
2023-10-23T14:39:00.933Z,1.30
2023-10-23T14:44:03.060Z,1.20
2023-10-23T14:49:04.814Z,1.83
2023-10-23T14:54:06.579Z,1.40
2023-10-23T14:59:08.089Z,1.48
2023-10-23T15:04:10.644Z,1.38
2023-10-23T15:09:12.429Z,1.92
2023-10-23T15:14:13.943Z,1.63
2023-10-23T15:19:15.778Z,1.42
2023-10-23T15:24:18.172Z,3.13
2023-10-23T15:29:19.928Z,2.83
2023-10-23T15:34:22.187Z,2.28
2023-10-23T15:39:23.823Z,1.45
2023-10-23T15:44:31.940Z,1.60
2023-10-23T15:49:33.608Z,1.38
2023-10-23T15:54:35.307Z,2.17
2023-10-23T15:59:36.894Z,1.88
2023-10-23T16:04:38.939Z,2.08
2023-10-23T16:09:40.938Z,2.00
2023-10-23T16:14:55.846Z,2.35
2023-10-23T16:19:58.585Z,1.75
2023-10-23T16:25:00.262Z,2.03
2023-10-23T16:30:03.321Z,1.75
2023-10-23T16:35:05.294Z,2.05
2023-10-23T16:40:07.451Z,1.88
2023-10-23T16:45:09.304Z,2.75
2023-10-23T16:50:11.318Z,2.08
2023-10-23T16:55:13.040Z,1.80
2023-10-23T17:00:16.958Z,2.70
2023-10-23T17:05:18.438Z,2.70
2023-10-23T17:10:20.484Z,2.75
2023-10-23T17:15:22.934Z,2.20
2023-10-23T17:20:25.594Z,1.55
2023-10-23T17:25:27.295Z,1.60
2023-10-23T17:30:28.965Z,1.83
2023-10-23T17:35:30.582Z,2.42
2023-10-23T17:40:38.096Z,2.30
2023-10-23T17:45:39.796Z,1.80
2023-10-23T17:50:41.737Z,2.00
2023-10-23T17:55:43.221Z,2.55
2023-10-23T18:00:44.653Z,2.28
2023-10-23T18:05:47.238Z,2.40
2023-10-23T18:10:48.592Z,1.92
2023-10-23T18:15:50.034Z,2.28
2023-10-23T18:20:55.994Z,2.70
2023-10-23T18:26:03.269Z,2.50
2023-10-23T18:31:05.190Z,2.15
2023-10-23T18:36:14.234Z,2.47
2023-10-23T18:41:20.075Z,2.55
2023-10-23T18:46:22.575Z,2.40
2023-10-23T18:51:25.086Z,2.50
2023-10-23T18:56:26.723Z,2.65
2023-10-23T19:01:29.233Z,2.65
2023-10-23T19:06:31.826Z,1.83
2023-10-23T19:11:33.303Z,2.42
2023-10-23T19:16:34.713Z,2.33
2023-10-23T19:21:36.264Z,2.38
2023-10-23T19:26:37.738Z,2.60
2023-10-23T19:31:39.528Z,2.60
2023-10-23T19:36:41.259Z,2.90
2023-10-23T19:41:49.725Z,2.45
2023-10-23T19:46:51.592Z,2.38
2023-10-23T19:51:54.838Z,2.88
2023-10-23T19:56:57.402Z,3.05
2023-10-23T20:02:02.296Z,4.10
2023-10-23T20:07:04.145Z,2.80
2023-10-23T20:12:06.075Z,3.90
2023-10-23T20:17:07.818Z,3.53
2023-10-23T20:22:09.354Z,3.60
2023-10-23T20:27:10.737Z,3.45
2023-10-23T20:32:13.025Z,3.20
2023-10-23T20:37:14.428Z,3.03
2023-10-23T20:42:16.054Z,2.92
2023-10-23T20:47:17.404Z,3.15
2023-10-23T20:52:18.739Z,3.20
2023-10-23T20:57:20.312Z,2.47
2023-10-23T21:02:21.719Z,3.67
2023-10-23T21:07:23.255Z,2.30
2023-10-23T21:12:24.728Z,3.30
2023-10-23T21:17:26.098Z,2.50
2023-10-23T21:22:27.819Z,2.47
2023-10-23T21:27:29.259Z,2.33
2023-10-23T21:32:30.691Z,1.95
2023-10-23T21:37:32.062Z,2.00
2023-10-23T21:42:33.427Z,2.20
2023-10-23T21:47:38.281Z,2.03
2023-10-23T21:52:40.166Z,2.40
2023-10-23T21:57:42.262Z,2.25
2023-10-23T22:02:47.125Z,2.25
2023-10-23T22:07:49.783Z,2.10
2023-10-23T22:12:54.699Z,1.80
2023-10-23T22:17:56.283Z,2.00
2023-10-23T22:22:57.693Z,2.55
2023-10-23T22:27:59.170Z,1.95
2023-10-23T22:38:09.769Z,1.98
2023-10-23T22:43:14.573Z,2.00
2023-10-23T22:48:15.927Z,1.65
2023-10-23T22:53:17.634Z,2.05
2023-10-23T22:58:20.736Z,1.77
2023-10-23T23:03:22.465Z,1.67
2023-10-23T23:08:27.424Z,2.45
2023-10-23T23:13:29.059Z,1.77
2023-10-23T23:18:31.503Z,1.73
2023-10-23T23:23:48.482Z,2.40
2023-10-23T23:28:49.810Z,2.33
2023-10-23T23:33:51.271Z,1.42
2023-10-23T23:38:53.405Z,2.03
2023-10-23T23:43:54.766Z,2.17
2023-10-23T23:48:56.276Z,2.08
2023-10-23T23:53:57.669Z,2.03
2023-10-23T23:58:59.090Z,2.20
